Time;durP1;ratioP1;P1;durP2;ratioP2;P2;SDS_P1;SDS_P2;PMS_P1;PMS_P2;Temp;Humidity;BMP_temperature;BMP_pressure;BME280_temperature;BME280_humidity;BME280_pressure;Samples;Min_cycle;Max_cycle;Signal;HPM_P1;HPM_P2
2022/04/01 00:00:59;;;;;;;6.80;5.88;;;;;;;6.06;68.17;96980.03;5086507;28;20045;-70
2022/04/01 00:03:31;;;;;;;8.35;6.78;;;;;;;5.97;68.36;96975.44;5044782;28;1186074;-71
2022/04/01 00:06:00;;;;;;;8.40;7.28;;;;;;;5.96;68.60;96970.31;5087391;28;20095;-70
2022/04/01 00:08:30;;;;;;;7.07;6.38;;;;;;;6.01;68.42;96974.25;5069739;28;20052;-70
2022/04/01 00:11:01;;;;;;;6.60;5.90;;;;;;;5.96;68.46;96975.56;5087190;28;20047;-70
2022/04/01 00:13:31;;;;;;;6.80;6.10;;;;;;;5.98;68.48;96973.66;5087394;28;20219;-70
2022/04/01 00:16:01;;;;;;;8.48;7.55;;;;;;;5.70;68.30;96919.66;5087089;28;20046;-70
2022/04/01 00:18:33;;;;;;;7.28;6.57;;;;;;;6.00;68.45;96967.34;5086991;28;20104;-70
2022/04/01 00:21:01;;;;;;;8.98;6.88;;;;;;;5.99;68.39;96964.81;5086868;28;20086;-71
2022/04/01 00:23:32;;;;;;;7.80;6.90;;;;;;;5.33;68.24;96864.59;5069396;28;20200;-70
2022/04/01 00:26:02;;;;;;;7.65;6.82;;;;;;;5.95;68.28;96966.00;5069560;28;20044;-70
2022/04/01 00:28:32;;;;;;;7.60;6.57;;;;;;;5.96;68.19;96959.78;5086740;28;20044;-70
2022/04/01 00:31:02;;;;;;;7.35;6.07;;;;;;;6.02;67.86;96973.31;5085885;28;20086;-70
2022/04/01 00:33:34;;;;;;;7.03;5.95;;;;;;;6.00;67.87;96963.88;5086645;28;20103;-71
2022/04/01 00:36:03;;;;;;;7.00;6.30;;;;;;;5.68;68.07;96948.69;5069732;28;20025;-70
2022/04/01 00:38:33;;;;;;;7.97;7.05;;;;;;;5.73;67.87;96922.06;5086549;28;20036;-71
2022/04/01 00:41:03;;;;;;;8.82;6.88;;;;;;;5.93;67.92;96963.47;5086654;28;20036;-70
2022/04/01 00:43:34;;;;;;;8.80;7.90;;;;;;;5.63;67.90;96937.66;5086734;28;20047;-71
2022/04/01 00:46:03;;;;;;;9.38;7.70;;;;;;;5.05;67.99;96841.28;5086396;28;20044;-70
2022/04/01 00:48:35;;;;;;;7.47;6.68;;;;;;;5.48;68.19;96914.31;5086260;28;20040;-71
2022/04/01 00:51:04;;;;;;;8.07;7.28;;;;;;;5.80;68.05;96970.59;5068855;28;20044;-71
2022/04/01 00:53:34;;;;;;;8.13;7.32;;;;;;;5.47;67.68;96916.09;5086252;28;20040;-71
2022/04/01 00:56:05;;;;;;;7.15;6.45;;;;;;;5.76;67.80;96966.53;5069672;28;20037;-71
2022/04/01 00:58:34;;;;;;;8.38;6.85;;;;;;;5.44;67.77;96914.53;5069757;28;20025;-71
2022/04/01 01:01:04;;;;;;;8.10;7.20;;;;;;;5.67;67.89;96959.31;5086376;28;20040;-70
2022/04/01 01:03:36;;;;;;;7.88;7.07;;;;;;;5.29;68.00;96915.66;5085877;28;20118;-71
2022/04/01 01:06:04;;;;;;;7.80;7.10;;;;;;;5.71;67.75;96958.13;5085891;28;20052;-70
2022/04/01 01:08:35;;;;;;;8.35;7.07;;;;;;;5.68;67.72;96961.81;5086109;28;20087;-70
2022/04/01 01:11:05;;;;;;;7.05;6.38;;;;;;;5.69;67.97;96966.13;5085914;28;20040;-70
2022/04/01 01:13:35;;;;;;;8.85;6.63;;;;;;;5.66;67.82;96953.22;5085952;28;20037;-70
2022/04/01 01:16:07;;;;;;;9.40;8.32;;;;;;;5.65;67.64;96955.94;5085924;28;20041;-70
2022/04/01 01:18:37;;;;;;;9.68;8.70;;;;;;;5.63;67.69;96956.06;5068501;28;20056;-70
2022/04/01 01:21:09;;;;;;;7.38;6.47;;;;;;;5.57;67.93;96963.56;5068757;28;20045;-70
2022/04/01 01:23:42;;;;;;;9.25;7.88;;;;;;;5.58;67.97;96962.59;5086069;28;20040;-70
2022/04/01 01:26:11;;;;;;;7.65;6.30;;;;;;;5.63;67.71;96963.94;5086322;28;20025;-70
2022/04/01 01:28:41;;;;;;;8.82;6.93;;;;;;;5.57;67.71;96969.66;5086020;28;20067;-70
2022/04/01 01:31:11;;;;;;;8.00;7.20;;;;;;;5.62;67.70;96964.06;5086008;28;20178;-70
2022/04/01 01:33:43;;;;;;;8.18;6.95;;;;;;;5.59;67.82;96953.78;5068480;28;20292;-70
2022/04/01 01:36:12;;;;;;;7.88;7.15;;;;;;;5.55;67.79;96955.78;5085612;28;20354;-70
2022/04/01 01:38:41;;;;;;;8.18;7.20;;;;;;;5.54;67.71;96958.53;5085881;28;20041;-71
2022/04/01 01:41:12;;;;;;;7.32;6.57;;;;;;;5.51;67.50;96956.13;5085785;28;20037;-71
2022/04/01 01:43:42;;;;;;;8.00;6.45;;;;;;;5.34;67.13;96933.69;5067822;28;20056;-70
2022/04/01 01:46:11;;;;;;;6.95;6.25;;;;;;;5.24;67.19;96912.53;5085780;28;20036;-70
2022/04/01 01:48:41;;;;;;;8.02;7.25;;;;;;;5.50;67.23;96960.53;5085690;28;20052;-70
2022/04/01 01:56:53;;;;;;;8.60;7.70;;;;;;;5.36;67.25;96960.69;5051129;28;20044;-71
2022/04/01 01:59:26;;;;;;;7.70;6.33;;;;;;;5.35;67.17;96957.22;5068148;28;20086;-70
2022/04/01 02:02:00;;;;;;;8.93;7.50;;;;;;;5.39;66.84;96961.31;5067770;28;20062;-70
2022/04/01 02:04:32;;;;;;;12.50;7.10;;;;;;;4.73;66.90;96846.19;5085591;28;20102;-70
2022/04/01 02:07:05;;;;;;;7.57;6.63;;;;;;;5.38;66.69;96957.00;5085327;28;20082;-70
2022/04/01 02:09:37;;;;;;;8.30;7.43;;;;;;;5.37;66.89;96965.00;5068047;28;20094;-70
2022/04/01 02:12:11;;;;;;;6.78;5.85;;;;;;;2.62;66.55;96522.19;5085500;28;20063;-70
2022/04/01 02:14:43;;;;;;;9.15;8.25;;;;;;;5.31;66.96;96958.41;5085237;28;20036;-70
2022/04/01 02:17:16;;;;;;;8.38;6.95;;;;;;;5.30;67.02;96959.34;5085171;28;20037;-70
2022/04/01 02:19:49;;;;;;;8.20;7.10;;;;;;;5.26;66.84;96957.06;5085207;28;20040;-70
2022/04/01 02:22:21;;;;;;;7.55;6.78;;;;;;;4.77;66.86;96892.25;5068586;28;20048;-70
2022/04/01 02:24:53;;;;;;;8.95;8.00;;;;;;;4.91;66.99;96914.94;5067941;28;20288;-70
2022/04/01 02:27:27;;;;;;;7.38;6.68;;;;;;;5.24;66.75;96961.56;5085084;28;20094;-70
2022/04/01 02:29:59;;;;;;;8.40;7.57;;;;;;;5.23;66.81;96960.75;5085060;28;20075;-70
2022/04/01 02:32:31;;;;;;;9.82;8.35;;;;;;;5.25;66.73;96961.47;5068776;28;20044;-70
2022/04/01 02:35:05;;;;;;;9.60;8.43;;;;;;;5.24;66.51;96951.91;5085089;28;20251;-70
2022/04/01 02:37:39;;;;;;;9.43;8.52;;;;;;;5.22;66.45;96951.19;5084973;28;20262;-71
2022/04/01 02:40:12;;;;;;;7.57;6.77;;;;;;;4.90;66.44;96929.84;5085026;28;20040;-69
2022/04/01 02:42:46;;;;;;;8.85;7.75;;;;;;;5.21;66.54;96961.78;5085197;28;20040;-71
2022/04/01 02:45:18;;;;;;;7.70;6.80;;;;;;;5.16;66.53;96963.91;5085209;28;20041;-71
2022/04/01 02:47:50;;;;;;;8.77;7.78;;;;;;;5.19;66.75;96963.69;5085159;28;20041;-70
2022/04/01 02:50:23;;;;;;;8.57;7.68;;;;;;;5.22;66.36;96959.06;5084888;28;20040;-70
2022/04/01 02:52:55;;;;;;;8.15;6.97;;;;;;;5.22;66.34;96947.72;5084890;28;20044;-70
2022/04/01 02:55:27;;;;;;;8.27;7.40;;;;;;;5.21;66.39;96946.03;5087422;28;20173;-71
2022/04/01 02:58:00;;;;;;;8.82;7.93;;;;;;;4.82;66.37;96893.63;5088791;28;20044;-70
2022/04/01 03:00:33;;;;;;;7.78;7.05;;;;;;;5.05;66.58;96951.53;5088723;28;20045;-71
2022/04/01 03:03:08;;;;;;;8.55;7.65;;;;;;;5.02;66.61;96944.72;5088147;28;20422;-71
2022/04/01 03:05:42;;;;;;;9.07;7.70;;;;;;;5.04;66.79;96947.25;5088644;28;20048;-71
2022/04/01 03:08:15;;;;;;;9.32;8.38;;;;;;;5.00;66.93;96954.50;5088407;28;20045;-71
2022/04/01 03:10:47;;;;;;;8.50;7.65;;;;;;;5.02;66.56;96952.59;5088422;28;20041;-71
2022/04/01 03:13:21;;;;;;;8.75;7.75;;;;;;;5.05;66.62;96949.75;5071196;28;20227;-71
2022/04/01 03:15:53;;;;;;;8.18;7.25;;;;;;;5.09;66.59;96947.75;5088467;28;20086;-71
2022/04/01 03:18:25;;;;;;;10.07;9.00;;;;;;;5.13;66.37;96934.31;5088166;28;20296;-70
2022/04/01 03:20:58;;;;;;;9.18;8.18;;;;;;;3.93;66.35;96735.59;5070857;28;20045;-70
2022/04/01 03:23:30;;;;;;;10.52;9.43;;;;;;;4.73;66.40;96868.03;5070517;28;20044;-70
2022/04/01 03:26:03;;;;;;;9.23;8.30;;;;;;;5.15;66.31;96943.84;5070748;28;20098;-70
2022/04/01 03:28:36;;;;;;;10.40;9.25;;;;;;;4.55;66.27;96839.63;5087943;28;20086;-71
2022/04/01 03:31:06;;;;;;;9.10;8.20;;;;;;;4.75;66.18;96907.28;5070406;28;20040;-71
2022/04/01 03:33:35;;;;;;;10.93;8.85;;;;;;;5.12;65.99;96934.41;5087847;28;20044;-71
2022/04/01 03:36:06;;;;;;;8.65;7.75;;;;;;;5.16;66.15;96929.78;5087836;28;20047;-71
2022/04/01 03:38:36;;;;;;;10.05;8.00;;;;;;;5.12;66.19;96932.63;5087777;28;20060;-71
2022/04/01 03:41:08;;;;;;;10.23;9.15;;;;;;;3.57;65.82;96693.63;5088029;28;20067;-71
2022/04/01 03:43:37;;;;;;;9.15;8.15;;;;;;;4.77;65.82;96942.97;5070381;28;20056;-70
2022/04/01 03:46:08;;;;;;;11.98;9.93;;;;;;;5.12;66.09;96942.28;5087847;28;20035;-70
2022/04/01 03:48:44;;;;;;;8.90;8.00;;;;;;;5.11;66.12;96936.19;5087490;28;20056;-71
2022/04/01 03:51:17;;;;;;;8.73;7.82;;;;;;;5.15;65.99;96935.97;5086988;28;20262;-69
2022/04/01 03:53:55;;;;;;;8.60;7.68;;;;;;;5.16;65.81;96942.91;5087513;28;20246;-70
2022/04/01 03:56:31;;;;;;;9.25;8.35;;;;;;;2.27;65.55;96482.75;5087652;28;20044;-71
2022/04/01 03:59:06;;;;;;;9.32;8.38;;;;;;;5.07;66.08;96947.88;5087686;28;20337;-71
2022/04/01 04:01:39;;;;;;;9.30;8.32;;;;;;;4.43;65.82;96829.06;5087608;28;20044;-70
2022/04/01 04:04:13;;;;;;;8.98;8.07;;;;;;;5.11;65.76;96941.44;5087000;28;20067;-70
2022/04/01 04:06:46;;;;;;;8.73;7.83;;;;;;;5.06;65.85;96940.94;5086222;28;20058;-70
2022/04/01 04:09:22;;;;;;;8.40;7.60;;;;;;;4.55;65.79;96858.84;5087191;28;20379;-70
2022/04/01 04:11:56;;;;;;;9.88;8.10;;;;;;;4.24;65.66;96915.19;5087098;28;20045;-70
2022/04/01 04:14:32;;;;;;;8.80;7.90;;;;;;;5.07;65.54;96953.13;5069593;28;20102;-69
2022/04/01 04:17:10;;;;;;;8.60;7.80;;;;;;;4.47;65.16;96841.00;5069522;28;20044;-69
2022/04/01 04:19:52;;;;;;;11.23;9.52;;;;;;;5.02;65.48;96944.72;5086942;28;20040;-69
2022/04/01 04:22:31;;;;;;;8.68;7.78;;;;;;;5.05;65.50;96947.13;5069620;28;20040;-69
2022/04/01 04:25:10;;;;;;;8.65;7.03;;;;;;;5.07;65.72;96949.66;5086757;28;20040;-69
2022/04/01 04:27:57;;;;;;;11.23;9.02;;;;;;;5.10;65.24;96959.94;5069627;28;20036;-70
2022/04/01 04:30:33;;;;;;;9.77;8.15;;;;;;;5.07;65.46;96966.25;5069494;28;20048;-70
2022/04/01 04:33:08;;;;;;;9.90;8.90;;;;;;;4.79;65.70;96917.44;5086529;28;20044;-70
2022/04/01 04:35:41;;;;;;;11.00;8.98;;;;;;;5.09;65.82;96972.22;5086787;28;20086;-70
2022/04/01 04:38:16;;;;;;;10.88;8.35;;;;;;;5.07;65.51;96968.03;5086738;28;20082;-70
2022/04/01 04:40:48;;;;;;;9.00;8.10;;;;;;;5.08;65.77;96972.34;5086423;28;20086;-70
2022/04/01 04:43:23;;;;;;;10.52;9.43;;;;;;;5.08;65.35;96977.59;5069031;28;20204;-70
2022/04/01 04:45:58;;;;;;;8.90;7.90;;;;;;;5.06;65.56;96975.06;5086131;28;20044;-71
2022/04/01 04:48:32;;;;;;;9.63;8.18;;;;;;;5.04;65.72;96976.13;5086285;28;20041;-70
2022/04/01 04:51:08;;;;;;;8.40;7.50;;;;;;;4.71;65.47;96932.06;5086353;28;20040;-71
2022/04/01 04:53:40;;;;;;;9.90;7.75;;;;;;;5.02;65.74;96983.25;5086287;28;20165;-70
2022/04/01 04:56:10;;;;;;;9.13;8.23;;;;;;;5.02;65.95;96973.59;5086137;28;20297;-70
2022/04/01 04:58:43;;;;;;;9.15;8.25;;;;;;;5.06;65.65;96979.47;5086360;28;20040;-71
2022/04/01 05:01:25;;;;;;;8.40;7.40;;;;;;;5.04;65.63;96979.59;5086470;28;20045;-70
2022/04/01 05:04:11;;;;;;;9.18;8.15;;;;;;;5.05;65.46;96991.75;5085838;28;20056;-70
2022/04/01 05:06:50;;;;;;;9.82;8.40;;;;;;;5.11;65.60;96995.75;5068567;28;20212;-70
2022/04/01 05:09:26;;;;;;;8.32;7.15;;;;;;;5.08;65.59;96993.34;5086177;28;20044;-70
2022/04/01 05:12:07;;;;;;;8.43;7.63;;;;;;;4.71;65.38;96940.75;5069019;28;20055;-70
2022/04/01 05:14:49;;;;;;;9.45;8.55;;;;;;;5.02;65.57;97018.22;5068318;28;20090;-69
2022/04/01 05:17:28;;;;;;;9.75;8.00;;;;;;;4.98;65.43;97014.16;5067935;28;20242;-70
2022/04/01 05:20:02;;;;;;;8.73;7.82;;;;;;;4.62;65.60;96957.16;5085726;28;20086;-71
2022/04/01 05:22:44;;;;;;;9.30;8.40;;;;;;;4.96;65.77;97008.16;5085599;28;20040;-70
2022/04/01 05:25:20;;;;;;;9.60;8.60;;;;;;;4.05;65.45;96891.97;5085549;28;20204;-70
2022/04/01 05:27:55;;;;;;;9.27;7.75;;;;;;;4.95;65.60;97010.91;5085479;28;20041;-70
2022/04/01 05:30:30;;;;;;;8.95;7.43;;;;;;;4.91;65.71;97009.44;5085458;28;20036;-70
2022/04/01 05:33:08;;;;;;;8.43;7.53;;;;;;;4.86;65.46;97007.09;5085755;28;20040;-70
2022/04/01 05:35:43;;;;;;;9.60;8.23;;;;;;;4.88;65.76;97009.59;5085379;28;20036;-70
2022/04/01 05:38:15;;;;;;;;;;;;;;;4.87;65.78;96998.28;5086024;28;20051;-71
2022/04/01 05:40:50;;;;;;;7.60;6.80;;;;;;;4.91;65.76;97001.56;5085498;28;19916;-71
2022/04/01 05:43:24;;;;;;;9.60;8.15;;;;;;;4.33;65.83;96905.88;5085572;28;20041;-71
2022/04/01 05:45:57;;;;;;;7.70;6.97;;;;;;;4.91;65.59;96996.31;5051973;28;20082;-72
2022/04/01 05:48:32;;;;;;;8.77;7.90;;;;;;;4.94;65.60;96999.56;5068285;28;20304;-71
2022/04/01 05:51:08;;;;;;;8.57;7.68;;;;;;;4.95;65.73;97009.09;5085583;28;20036;-71
2022/04/01 05:53:40;;;;;;;6.90;6.20;;;;;;;3.92;65.55;96840.50;5085332;28;20090;-71
2022/04/01 05:56:11;;;;;;;7.47;6.70;;;;;;;4.04;65.40;96861.47;5085426;28;20139;-71
2022/04/01 05:58:40;;;;;;;7.78;6.88;;;;;;;4.07;65.19;96900.59;5068064;28;20070;-70
2022/04/01 06:01:16;;;;;;;9.38;6.95;;;;;;;4.98;65.36;97018.56;5085540;28;20045;-70
2022/04/01 06:04:41;;;;;;;7.82;6.40;;;;;;;2.60;65.10;96620.81;5084922;28;20056;-69
2022/04/01 06:07:28;;;;;;;7.82;6.45;;;;;;;4.67;65.41;96957.66;5085522;28;20036;-70
2022/04/01 06:10:08;;;;;;;8.18;6.25;;;;;;;4.63;65.21;96952.75;5085257;28;20044;-70
2022/04/01 06:12:51;;;;;;;8.75;6.40;;;;;;;5.00;65.45;97019.28;5085123;28;20041;-70
2022/04/01 06:15:32;;;;;;;7.25;6.40;;;;;;;4.30;65.42;96900.81;5068400;28;20056;-70
2022/04/01 06:18:15;;;;;;;7.93;6.70;;;;;;;4.55;65.37;96947.19;5085157;28;20342;-70
2022/04/01 06:20:50;;;;;;;6.95;6.25;;;;;;;4.94;65.43;97009.22;5085057;28;20036;-70
2022/04/01 06:23:30;;;;;;;7.00;6.25;;;;;;;4.95;65.25;97011.72;5085261;28;20335;-70
2022/04/01 06:26:02;;;;;;;6.88;5.65;;;;;;;4.51;65.47;96949.19;5085040;28;20041;-70
2022/04/01 06:28:38;;;;;;;7.60;5.68;;;;;;;4.94;65.28;97019.72;5085218;28;20041;-70
2022/04/01 06:31:09;;;;;;;6.82;6.13;;;;;;;4.98;65.11;97015.94;5088813;28;20047;-70
2022/04/01 06:33:47;;;;;;;6.88;6.18;;;;;;;4.97;65.11;97024.75;5088627;28;20040;-70
2022/04/01 06:36:29;;;;;;;6.90;6.20;;;;;;;4.96;65.07;97023.06;5088915;28;20044;-70
2022/04/01 06:39:05;;;;;;;6.50;5.70;;;;;;;4.98;65.11;97018.56;5088842;28;20234;-70
2022/04/01 06:41:43;;;;;;;6.35;5.75;;;;;;;4.99;64.92;97025.47;5089103;28;20040;-70
2022/04/01 06:44:15;;;;;;;6.90;5.47;;;;;;;1.17;64.68;96620.38;5072029;28;20279;-70
2022/04/01 06:46:48;;;;;;;6.82;6.10;;;;;;;5.03;65.01;97034.81;5088527;28;20090;-70
2022/04/01 06:49:22;;;;;;;8.38;5.45;;;;;;;5.07;65.04;97031.88;5088997;28;20044;-70
2022/04/01 06:51:55;;;;;;;6.22;5.60;;;;;;;5.10;64.87;97030.81;5089328;28;20044;-70
2022/04/01 06:54:27;;;;;;;7.43;6.68;;;;;;;3.92;64.70;96870.16;5088652;28;20052;-70
2022/04/01 06:57:00;;;;;;;6.22;5.43;;;;;;;5.05;64.86;97035.56;5088719;28;20040;-70
2022/04/01 06:59:34;;;;;;;5.90;5.15;;;;;;;4.64;64.81;96981.50;5088683;28;20040;-70
2022/04/01 07:02:06;;;;;;;6.83;5.43;;;;;;;5.02;64.85;97044.47;5088637;28;20063;-71
2022/04/01 07:04:38;;;;;;;7.18;5.80;;;;;;;5.04;64.71;97045.22;5088228;28;20470;-70
2022/04/01 07:07:12;;;;;;;8.45;5.80;;;;;;;5.00;64.96;97053.41;5088140;28;20066;-70
2022/04/01 07:09:45;;;;;;;9.20;6.07;;;;;;;4.74;64.81;96997.44;5088358;28;20037;-70
2022/04/01 07:12:18;;;;;;;6.30;5.50;;;;;;;4.72;64.60;97002.78;5088473;28;20044;-70
2022/04/01 07:14:50;;;;;;;8.57;6.63;;;;;;;5.12;64.51;97042.91;5088157;28;20045;-70
2022/04/01 07:17:22;;;;;;;7.95;6.57;;;;;;;4.74;64.50;96979.06;5088185;28;20044;-70
2022/04/01 07:19:55;;;;;;;6.93;6.07;;;;;;;4.18;64.37;96897.22;5088398;28;20083;-70
2022/04/01 07:22:29;;;;;;;7.05;5.80;;;;;;;5.15;64.40;97044.47;5088272;28;20052;-71
2022/04/01 07:25:01;;;;;;;7.60;5.20;;;;;;;5.20;64.18;97044.16;5088304;28;20182;-70
2022/04/01 07:27:34;;;;;;;5.70;5.13;;;;;;;5.13;64.08;97041.13;5070579;28;20040;-70
2022/04/01 07:30:08;;;;;;;6.38;5.50;;;;;;;5.15;63.78;97041.84;5070526;28;20040;-70
2022/04/01 07:32:41;;;;;;;7.60;5.15;;;;;;;5.19;64.01;97048.56;5088149;28;20127;-70
2022/04/01 07:35:15;;;;;;;6.20;5.53;;;;;;;3.76;64.05;96861.66;5070641;28;20048;-71
2022/04/01 07:37:49;;;;;;;6.13;5.53;;;;;;;4.96;63.64;97018.66;5087952;28;20044;-70
2022/04/01 07:40:22;;;;;;;6.77;5.33;;;;;;;5.24;63.79;97059.59;5087727;28;20284;-70
2022/04/01 07:42:54;;;;;;;6.57;5.10;;;;;;;3.79;63.62;96819.53;5087502;28;20376;-71
2022/04/01 07:45:27;;;;;;;6.63;5.82;;;;;;;5.22;63.64;97053.59;5087677;28;20048;-70
2022/04/01 07:48:00;;;;;;;6.28;5.07;;;;;;;4.90;63.43;97003.34;5069968;28;20058;-70
2022/04/01 07:50:33;;;;;;;6.30;5.60;;;;;;;5.22;63.68;97058.00;5087445;28;20082;-70
2022/04/01 07:53:06;;;;;;;8.10;5.97;;;;;;;5.22;63.31;97058.84;5087357;28;20253;-70
2022/04/01 07:55:39;;;;;;;5.35;4.85;;;;;;;5.25;63.55;97060.41;5087283;28;20062;-70
2022/04/01 07:58:11;;;;;;;5.68;5.10;;;;;;;5.24;63.37;97054.34;5070327;28;20044;-69
2022/04/01 08:00:43;;;;;;;5.53;4.75;;;;;;;5.18;63.92;97065.25;5087618;28;20078;-69
2022/04/01 08:03:15;;;;;;;6.78;5.38;;;;;;;4.54;63.16;96969.13;5087046;28;20056;-69
2022/04/01 08:05:48;;;;;;;5.38;4.85;;;;;;;5.18;63.42;97067.88;5087358;28;20041;-71
2022/04/01 08:08:21;;;;;;;6.00;5.25;;;;;;;5.22;63.12;97071.97;5087409;28;20048;-70
2022/04/01 08:10:54;;;;;;;5.93;5.32;;;;;;;5.20;63.20;97068.63;5087242;28;20040;-70
2022/04/01 08:13:26;;;;;;;6.88;5.60;;;;;;;5.20;63.19;97071.25;5087052;28;20089;-70
2022/04/01 08:15:58;;;;;;;6.53;5.05;;;;;;;5.21;63.23;97078.19;5086968;28;20045;-70
2022/04/01 08:18:30;;;;;;;8.15;5.88;;;;;;;4.68;63.39;96985.59;5069703;28;20048;-70
2022/04/01 08:21:01;;;;;;;6.45;5.40;;;;;;;5.23;63.44;97076.28;5086894;28;20040;-70
2022/04/01 08:23:34;;;;;;;5.95;5.35;;;;;;;5.25;63.20;97074.41;5069473;28;20037;-70
2022/04/01 08:26:07;;;;;;;5.75;5.13;;;;;;;4.82;63.13;97027.47;5086918;28;20044;-70
2022/04/01 08:28:36;;;;;;;6.72;6.00;;;;;;;5.23;63.25;97078.91;5086924;28;20036;-70
2022/04/01 08:31:08;;;;;;;5.70;4.93;;;;;;;5.21;63.15;97082.59;5069755;28;20095;-70
2022/04/01 08:33:37;;;;;;;10.43;8.23;;;;;;;5.21;63.26;97088.69;5086754;28;20060;-70
2022/04/01 08:36:06;;;;;;;7.10;6.07;;;;;;;4.89;63.11;97024.41;5086593;28;20130;-70
2022/04/01 08:38:38;;;;;;;8.95;5.72;;;;;;;5.25;62.91;97094.56;5086482;28;20231;-70
2022/04/01 08:41:07;;;;;;;6.53;5.80;;;;;;;4.90;63.07;97036.63;5086508;28;20181;-69
2022/04/01 08:43:39;;;;;;;9.77;5.55;;;;;;;5.34;63.09;97143.81;5087287;28;20296;-70
2022/04/01 08:46:08;;;;;;;6.45;5.40;;;;;;;5.37;63.07;97091.91;5086294;28;20316;-69
2022/04/01 08:48:37;;;;;;;6.75;5.05;;;;;;;5.05;62.93;97031.16;5086293;28;20040;-70
2022/04/01 08:51:07;;;;;;;6.50;5.53;;;;;;;5.16;62.78;97043.53;5086951;28;20106;-70
2022/04/01 08:53:41;;;;;;;6.32;5.72;;;;;;;5.44;62.65;97095.78;5085729;28;20089;-70
2022/04/01 08:56:15;;;;;;;5.45;4.90;;;;;;;5.45;62.65;97094.84;5086655;28;20041;-70
2022/04/01 08:58:47;;;;;;;6.88;5.68;;;;;;;3.68;62.24;96835.16;5086253;28;20041;-70
2022/04/01 09:01:19;;;;;;;5.38;4.80;;;;;;;5.47;62.56;97107.88;5068951;28;20063;-70
2022/04/01 09:03:55;;;;;;;7.43;6.13;;;;;;;5.44;62.39;97105.47;5086116;28;20057;-70
2022/04/01 09:06:27;;;;;;;6.38;5.38;;;;;;;5.06;62.32;97053.00;5085908;28;20090;-70
2022/04/01 09:09:01;;;;;;;6.43;5.78;;;;;;;5.44;62.15;97114.19;5085818;28;20044;-70
2022/04/01 09:11:33;;;;;;;7.75;5.65;;;;;;;5.47;62.52;97120.16;5086126;28;20040;-70
2022/04/01 09:14:05;;;;;;;7.47;5.78;;;;;;;4.07;62.12;96882.22;5085832;28;20334;-71
2022/04/01 09:16:41;;;;;;;5.07;4.57;;;;;;;5.47;62.18;97121.00;5086017;28;20093;-70
2022/04/01 09:19:15;;;;;;;7.63;6.15;;;;;;;5.48;62.08;97120.06;5086122;28;20074;-70
2022/04/01 09:21:49;;;;;;;8.50;5.93;;;;;;;5.52;62.32;97108.41;5085776;28;20346;-70
2022/04/01 09:24:23;;;;;;;6.15;5.25;;;;;;;5.56;61.91;97109.84;5085673;28;20040;-70
2022/04/01 09:26:56;;;;;;;6.77;5.87;;;;;;;5.58;62.33;97113.22;5085907;28;20082;-69
2022/04/01 09:29:34;;;;;;;6.28;5.68;;;;;;;5.57;62.22;97108.91;5069127;28;20040;-70
2022/04/01 09:32:08;;;;;;;8.32;6.45;;;;;;;5.25;61.76;97056.00;5085587;28;20102;-70
2022/04/01 09:34:41;;;;;;;6.57;5.40;;;;;;;5.24;61.99;97061.38;5085618;28;20040;-69
2022/04/01 09:37:13;;;;;;;6.95;6.22;;;;;;;5.65;61.79;97119.72;5067924;28;20051;-70
2022/04/01 09:39:47;;;;;;;10.52;6.40;;;;;;;5.30;61.52;97053.91;5085494;28;20242;-70
2022/04/01 09:42:20;;;;;;;5.95;5.20;;;;;;;5.71;61.52;97131.59;5067781;28;20047;-71
2022/04/01 09:44:59;;;;;;;7.50;6.15;;;;;;;5.72;60.95;97126.22;5085486;28;20094;-70
2022/04/01 09:47:37;;;;;;;8.23;6.38;;;;;;;4.41;60.71;96919.28;5068283;28;20231;-70
2022/04/01 09:50:13;;;;;;;7.47;6.65;;;;;;;5.63;61.18;97131.28;5085527;28;20055;-70
2022/04/01 09:52:46;;;;;;;6.78;6.05;;;;;;;5.63;61.52;97129.50;5085199;28;20041;-70
2022/04/01 09:55:20;;;;;;;6.65;5.05;;;;;;;5.62;61.10;97125.19;5085347;28;20062;-70
2022/04/01 09:57:53;;;;;;;5.32;4.80;;;;;;;5.59;61.26;97135.06;5067728;28;20036;-70
2022/04/01 10:00:25;;;;;;;5.32;4.82;;;;;;;5.57;61.48;97137.81;5085155;28;20091;-70
2022/04/01 10:02:58;;;;;;;6.55;5.32;;;;;;;5.59;61.41;97135.91;5084954;28;20048;-70
2022/04/01 10:05:31;;;;;;;7.30;6.00;;;;;;;4.90;60.99;97010.38;5068098;28;20056;-70
2022/04/01 10:08:06;;;;;;;6.38;5.70;;;;;;;5.30;61.00;97082.78;5069195;28;20339;-70
2022/04/01 10:10:41;;;;;;;6.78;6.07;;;;;;;5.24;60.86;97062.22;5069349;28;20284;-70
2022/04/01 10:13:19;;;;;;;6.90;5.43;;;;;;;5.68;60.48;97142.31;5069111;28;20043;-70
2022/04/01 10:15:54;;;;;;;8.15;6.38;;;;;;;4.51;60.87;96966.69;5068613;28;20045;-70
2022/04/01 10:18:28;;;;;;;6.55;5.82;;;;;;;5.69;61.03;97144.00;5069049;28;20040;-70
2022/04/01 10:21:03;;;;;;;5.63;5.03;;;;;;;3.81;60.41;96899.72;5068953;28;20045;-71
2022/04/01 10:23:41;;;;;;;6.45;5.65;;;;;;;5.64;60.80;97141.69;5068386;28;20033;-70
2022/04/01 10:26:16;;;;;;;7.20;5.85;;;;;;;5.66;60.20;97145.06;5068765;28;20100;-70
2022/04/01 10:28:51;;;;;;;8.05;6.25;;;;;;;5.65;60.80;97148.63;5068970;28;20083;-70
2022/04/01 10:31:25;;;;;;;;;;;;;;;5.66;59.69;97144.22;5068818;28;20068;-69
2022/04/01 10:34:21;;;;;;;6.80;5.85;;;;;;;4.16;59.50;96931.41;5069220;28;20172;-70
2022/04/01 10:36:57;;;;;;;5.88;5.25;;;;;;;5.77;60.50;97149.56;5068513;28;20090;-69
2022/04/01 10:39:29;;;;;;;8.85;6.18;;;;;;;5.79;60.12;97139.78;5069634;28;20041;-69
2022/04/01 10:42:13;;;;;;;7.68;6.25;;;;;;;5.77;59.31;97145.13;5069034;28;20048;-69
2022/04/01 10:44:50;;;;;;;7.22;6.00;;;;;;;5.14;60.38;97053.28;5068967;28;20045;-70
2022/04/01 10:51:36;;;;;;;6.88;5.82;;;;;;;5.82;60.28;97165.84;5069225;28;20045;-69
2022/04/01 10:53:37;;;;;;;6.25;5.25;;;;;;;5.80;58.85;97165.09;5068765;28;20277;-70
2022/04/01 10:56:33;;;;;;;6.55;5.45;;;;;;;5.80;59.03;97169.53;5068328;28;20047;-69
2022/04/01 10:59:12;;;;;;;6.18;5.18;;;;;;;4.71;59.13;96976.66;5068047;28;20094;-69
2022/04/01 11:02:06;;;;;;;8.20;6.90;;;;;;;5.82;58.19;97170.25;5068751;28;20037;-69
2022/04/01 11:04:41;;;;;;;7.90;6.68;;;;;;;5.41;59.48;97105.69;5067654;28;20053;-70
2022/04/01 11:07:30;;;;;;;6.47;5.88;;;;;;;5.83;58.49;97170.16;5068445;28;20091;-70
2022/04/01 11:10:08;;;;;;;7.07;6.40;;;;;;;4.61;58.72;96993.97;5067258;28;20040;-69
2022/04/01 11:12:50;;;;;;;7.95;7.18;;;;;;;5.49;59.42;97110.41;5067413;28;20041;-70
2022/04/01 11:15:28;;;;;;;5.65;5.10;;;;;;;5.91;58.99;97172.22;5067536;28;20045;-69
2022/04/01 11:18:06;;;;;;;6.55;5.45;;;;;;;5.31;59.10;97081.00;5068349;28;20083;-69
2022/04/01 11:20:40;;;;;;;8.02;5.88;;;;;;;5.86;59.29;97176.97;5067503;28;20045;-69
2022/04/01 11:23:14;;;;;;;5.68;5.18;;;;;;;5.92;59.29;97182.63;5068393;28;20083;-69
2022/04/01 11:25:54;;;;;;;5.90;5.07;;;;;;;5.90;58.91;97181.06;5068139;28;20037;-68
2022/04/01 11:28:29;;;;;;;6.22;5.60;;;;;;;5.55;58.92;97123.09;5067286;28;20045;-70
2022/04/01 11:31:21;;;;;;;5.63;4.95;;;;;;;5.89;58.04;97176.75;5067213;28;20083;-69
2022/04/01 11:34:00;;;;;;;5.97;5.38;;;;;;;5.89;58.45;97180.22;5067852;28;20037;-69
2022/04/01 11:36:32;;;;;;;6.55;5.35;;;;;;;5.89;58.81;97188.13;5067702;28;20045;-69
2022/04/01 11:39:05;;;;;;;7.35;5.85;;;;;;;4.75;58.66;97022.72;5067670;28;20037;-68
2022/04/01 11:41:46;;;;;;;6.72;4.70;;;;;;;5.13;58.28;97057.72;5067777;28;20048;-68
2022/04/01 11:44:18;;;;;;;10.98;5.95;;;;;;;6.00;59.46;97188.19;5067708;28;20232;-67
2022/04/01 11:46:54;;;;;;;7.47;5.25;;;;;;;6.08;58.50;97182.38;5067520;28;20044;-67
2022/04/01 11:49:27;;;;;;;5.97;5.05;;;;;;;5.84;58.66;97145.53;5067373;28;20125;-67
2022/04/01 11:51:59;;;;;;;5.95;5.35;;;;;;;6.16;58.25;97190.56;5067415;28;20233;-67
2022/04/01 11:54:32;;;;;;;6.45;5.47;;;;;;;6.10;58.46;97183.97;5067380;28;20087;-71
2022/04/01 11:57:04;;;;;;;6.10;5.45;;;;;;;6.03;58.44;97192.41;5067573;28;20045;-71
2022/04/01 11:59:36;;;;;;;6.57;5.53;;;;;;;6.00;58.69;97185.56;5066401;28;20049;-70
2022/04/01 12:02:11;;;;;;;9.20;6.15;;;;;;;6.04;58.41;97176.50;5067158;28;20090;-70
2022/04/01 12:04:43;;;;;;;5.57;4.90;;;;;;;6.04;58.07;97181.78;5078373;28;20060;-70
2022/04/01 12:10:18;;;;;;;8.32;5.82;;;;;;;5.72;58.03;97141.16;5087036;28;20090;-70
2022/04/01 12:12:54;;;;;;;8.07;6.43;;;;;;;5.99;58.18;97175.16;5086778;28;20040;-70
2022/04/01 12:15:32;;;;;;;5.85;5.10;;;;;;;6.03;58.12;97189.78;5087240;28;20044;-70
2022/04/01 12:18:07;;;;;;;6.05;5.25;;;;;;;6.06;58.38;97190.38;5069251;28;20044;-71
2022/04/01 12:20:41;;;;;;;6.32;5.40;;;;;;;5.16;58.24;97050.56;5069426;28;20120;-70
2022/04/01 12:23:14;;;;;;;5.55;4.38;;;;;;;6.04;58.55;97197.53;5086830;28;20046;-71
2022/04/01 12:25:49;;;;;;;6.75;5.45;;;;;;;6.06;58.46;97193.03;5086723;28;20211;-70